Time;durP1;ratioP1;P1;durP2;ratioP2;P2;SDS_P1;SDS_P2;PMS_P1;PMS_P2;Temp;Humidity;BMP_temperature;BMP_pressure;BME280_temperature;BME280_humidity;BME280_pressure;Samples;Min_cycle;Max_cycle;Signal;HPM_P1;HPM_P2
2023/12/13 00:00:52;;;;;;;23.23;21.85;;;;;;;;;;5033612;28;20053;-87
2023/12/13 00:03:19;;;;;;;27.63;26.50;;;;;;;;;;5052248;28;20052;-86
2023/12/13 00:05:46;;;;;;;24.90;23.73;;;;;;;;;;5052132;28;20045;-86
2023/12/13 00:08:13;;;;;;;22.38;21.02;;;;;;;;;;5044886;28;20466;-86
2023/12/13 00:10:39;;;;;;;20.25;19.30;;;;;;;;;;5032111;28;20056;-86
2023/12/13 00:13:06;;;;;;;21.20;20.13;;;;;;;;;;5031859;28;20486;-86
2023/12/13 00:15:32;;;;;;;21.98;21.10;;;;;;;;;;5032394;28;20056;-86
2023/12/13 00:17:59;;;;;;;23.00;21.95;;;;;;;;;;5039679;28;20056;-86
2023/12/13 00:20:27;;;;;;;23.73;22.73;;;;;;;;;;5047133;28;20045;-86
2023/12/13 00:22:53;;;;;;;19.90;18.80;;;;;;;;;;5051898;28;20045;-87
2023/12/13 00:25:20;;;;;;;21.45;20.00;;;;;;;;;;5052144;28;20053;-88
2023/12/13 00:27:47;;;;;;;22.77;21.60;;;;;;;;;;5050737;28;20490;-87
2023/12/13 00:30:14;;;;;;;24.98;23.92;;;;;;;;;;5035100;28;20041;-87
2023/12/13 00:32:39;;;;;;;22.80;21.30;;;;;;;;;;5031270;28;20053;-85
2023/12/13 00:35:06;;;;;;;31.70;30.40;;;;;;;;;;5031350;28;20513;-85
2023/12/13 00:37:34;;;;;;;30.88;29.50;;;;;;;;;;5044631;28;20099;-84
2023/12/13 00:40:01;;;;;;;31.20;29.75;;;;;;;;;;5039422;28;20053;-84
2023/12/13 00:42:27;;;;;;;29.80;28.52;;;;;;;;;;5035196;28;20140;-84
2023/12/13 00:44:54;;;;;;;32.33;30.88;;;;;;;;;;5035416;28;20163;-84
2023/12/13 00:47:21;;;;;;;35.63;33.60;;;;;;;;;;5035132;28;20497;-85
2023/12/13 00:49:47;;;;;;;23.50;22.20;;;;;;;;;;5043005;28;20054;-87
2023/12/13 00:52:14;;;;;;;27.95;26.73;;;;;;;;;;5038693;28;20103;-87
2023/12/13 00:54:41;;;;;;;22.55;21.48;;;;;;;;;;5056029;28;20049;-86
2023/12/13 00:57:08;;;;;;;34.00;32.40;;;;;;;;;;5055278;28;20044;-87
2023/12/13 00:59:34;;;;;;;29.60;28.38;;;;;;;;;;5052510;28;20464;-86
2023/12/13 01:02:03;;;;;;;20.58;19.52;;;;;;;;;;5035596;28;20049;-87
2023/12/13 01:04:30;;;;;;;25.70;24.42;;;;;;;;;;5035393;28;20486;-85
2023/12/13 01:06:56;;;;;;;22.88;21.90;;;;;;;;;;5036056;28;20464;-85
2023/12/13 01:09:23;;;;;;;18.75;17.90;;;;;;;;;;5045305;28;20094;-85
2023/12/13 01:11:51;;;;;;;24.00;22.85;;;;;;;;;;5038413;28;20107;-86
2023/12/13 01:14:17;;;;;;;23.20;22.05;;;;;;;;;;5035272;28;20115;-86
2023/12/13 01:16:44;;;;;;;21.20;19.75;;;;;;;;;;5035234;28;20446;-86
2023/12/13 01:19:11;;;;;;;30.38;28.85;;;;;;;;;;5035638;28;20045;-85
2023/12/13 01:21:38;;;;;;;30.83;29.17;;;;;;;;;;5042412;28;20132;-86
2023/12/13 01:24:04;;;;;;;26.30;25.10;;;;;;;;;;5034951;28;20060;-85
2023/12/13 01:26:31;;;;;;;26.00;24.13;;;;;;;;;;5042842;28;20049;-86
2023/12/13 01:28:59;;;;;;;21.80;20.60;;;;;;;;;;5054959;28;20045;-85
2023/12/13 01:31:25;;;;;;;21.63;20.73;;;;;;;;;;5046157;28;20099;-85
2023/12/13 01:33:52;;;;;;;19.25;18.42;;;;;;;;;;5034545;28;20065;-86
2023/12/13 01:36:18;;;;;;;21.52;20.70;;;;;;;;;;5035078;28;20049;-85
2023/12/13 01:38:45;;;;;;;20.80;20.00;;;;;;;;;;5034876;28;20049;-85
2023/12/13 01:41:11;;;;;;;26.98;25.92;;;;;;;;;;5042243;28;20493;-85
2023/12/13 01:43:38;;;;;;;22.42;21.23;;;;;;;;;;5039422;28;20045;-86
2023/12/13 01:46:06;;;;;;;18.17;17.38;;;;;;;;;;5055025;28;20052;-85
2023/12/13 01:48:32;;;;;;;25.40;24.48;;;;;;;;;;5054484;28;20118;-86
2023/12/13 01:50:59;;;;;;;17.08;16.38;;;;;;;;;;5053764;28;20056;-85
2023/12/13 01:53:27;;;;;;;22.48;21.20;;;;;;;;;;5036630;28;20045;-85
2023/12/13 01:55:54;;;;;;;25.98;24.95;;;;;;;;;;5035123;28;20050;-85
2023/12/13 01:58:20;;;;;;;16.85;16.15;;;;;;;;;;5034303;28;20136;-85
2023/12/13 02:00:47;;;;;;;17.23;16.58;;;;;;;;;;5034909;28;20045;-85
2023/12/13 02:03:15;;;;;;;18.95;18.05;;;;;;;;;;5053490;28;20107;-85
2023/12/13 02:05:42;;;;;;;22.38;21.40;;;;;;;;;;5054698;28;20049;-86
2023/12/13 02:08:09;;;;;;;19.02;18.30;;;;;;;;;;5054647;28;20044;-86
2023/12/13 02:10:35;;;;;;;20.85;19.92;;;;;;;;;;5055066;28;20468;-86
2023/12/13 02:13:02;;;;;;;19.45;18.60;;;;;;;;;;5044799;28;20099;-86
2023/12/13 02:15:28;;;;;;;24.98;24.02;;;;;;;;;;5034391;28;20123;-86
2023/12/13 02:17:55;;;;;;;14.80;14.10;;;;;;;;;;5043355;28;20048;-86
2023/12/13 02:20:23;;;;;;;19.30;18.40;;;;;;;;;;5054083;28;20049;-86
2023/12/13 02:22:51;;;;;;;27.95;26.75;;;;;;;;;;5049098;28;20091;-86
2023/12/13 02:25:20;;;;;;;21.92;21.02;;;;;;;;;;5033380;28;20053;-87
2023/12/13 02:27:47;;;;;;;20.95;20.08;;;;;;;;;;5033388;28;20057;-87
2023/12/13 02:30:13;;;;;;;19.80;18.92;;;;;;;;;;5033797;28;20053;-88
2023/12/13 02:32:40;;;;;;;26.83;25.80;;;;;;;;;;5040159;28;20103;-88
2023/12/13 02:35:07;;;;;;;15.07;14.38;;;;;;;;;;5038832;28;20044;-88
2023/12/13 02:37:33;;;;;;;21.17;20.23;;;;;;;;;;5053829;28;20049;-88
2023/12/13 02:40:03;;;;;;;21.70;20.70;;;;;;;;;;5053906;28;20053;-88
2023/12/13 02:42:29;;;;;;;18.20;17.40;;;;;;;;;;5052487;28;20045;-88
2023/12/13 02:44:56;;;;;;;24.50;23.25;;;;;;;;;;5040875;28;20049;-89
2023/12/13 02:47:25;;;;;;;25.17;24.25;;;;;;;;;;5053808;28;20048;-88
2023/12/13 02:49:51;;;;;;;26.40;25.02;;;;;;;;;;5053662;28;20521;-88
2023/12/13 02:52:18;;;;;;;20.98;19.98;;;;;;;;;;5053980;28;20056;-88
2023/12/13 02:54:45;;;;;;;23.35;22.33;;;;;;;;;;5042456;28;20076;-88
2023/12/13 02:57:12;;;;;;;26.80;25.65;;;;;;;;;;5033670;28;20453;-88
2023/12/13 02:59:39;;;;;;;26.58;25.48;;;;;;;;;;5033620;28;20483;-89
2023/12/13 03:02:05;;;;;;;23.42;22.10;;;;;;;;;;5051310;28;20064;-88
2023/12/13 03:04:32;;;;;;;23.17;22.10;;;;;;;;;;5046875;28;20103;-88
2023/12/13 03:06:58;;;;;;;34.83;33.35;;;;;;;;;;5033169;28;20049;-88
2023/12/13 03:09:25;;;;;;;27.10;25.40;;;;;;;;;;5033689;28;20084;-88
2023/12/13 03:11:51;;;;;;;24.90;23.90;;;;;;;;;;5033255;28;20057;-89
2023/12/13 03:14:19;;;;;;;20.20;19.00;;;;;;;;;;5040765;28;20071;-88
2023/12/13 03:16:46;;;;;;;20.67;19.65;;;;;;;;;;5033439;28;20104;-88
2023/12/13 03:19:12;;;;;;;18.20;17.40;;;;;;;;;;5047617;28;20486;-81
2023/12/13 03:21:39;;;;;;;30.35;29.02;;;;;;;;;;5051789;28;20060;-82
2023/12/13 03:24:05;;;;;;;23.50;21.98;;;;;;;;;;5050892;28;20463;-81
2023/12/13 03:26:32;;;;;;;22.08;21.15;;;;;;;;;;5036716;28;20076;-82
2023/12/13 03:28:58;;;;;;;18.25;17.40;;;;;;;;;;5032065;28;20379;-87
2023/12/13 03:31:26;;;;;;;17.60;16.88;;;;;;;;;;5032140;28;20104;-86
2023/12/13 03:33:54;;;;;;;21.83;20.63;;;;;;;;;;5032882;28;20057;-87
2023/12/13 03:36:21;;;;;;;26.30;25.15;;;;;;;;;;5048638;28;20486;-87
2023/12/13 03:38:48;;;;;;;27.80;26.50;;;;;;;;;;5051835;28;20045;-87
2023/12/13 03:41:15;;;;;;;27.85;26.35;;;;;;;;;;5052202;28;20135;-87
2023/12/13 03:43:41;;;;;;;33.13;31.40;;;;;;;;;;5051875;28;20132;-87
2023/12/13 03:46:07;;;;;;;34.28;32.25;;;;;;;;;;5045583;28;20103;-87
2023/12/13 03:48:35;;;;;;;24.95;23.83;;;;;;;;;;5031785;28;20053;-87
2023/12/13 03:51:02;;;;;;;22.70;21.27;;;;;;;;;;5038213;28;20048;-87
2023/12/13 03:53:29;;;;;;;32.70;30.52;;;;;;;;;;5052197;28;20140;-87
2023/12/13 03:55:55;;;;;;;28.55;27.20;;;;;;;;;;5050292;28;20072;-87
2023/12/13 03:58:22;;;;;;;33.28;31.52;;;;;;;;;;5031794;28;20045;-87
2023/12/13 04:00:49;;;;;;;24.67;23.38;;;;;;;;;;5032022;28;20494;-87
2023/12/13 04:03:15;;;;;;;23.38;22.02;;;;;;;;;;5031768;28;20058;-86
2023/12/13 04:05:43;;;;;;;23.05;21.95;;;;;;;;;;5035133;28;20052;-87
2023/12/13 04:08:09;;;;;;;26.27;25.17;;;;;;;;;;5049124;28;20049;-87
2023/12/13 04:10:36;;;;;;;36.75;35.17;;;;;;;;;;5051618;28;20112;-86
2023/12/13 04:13:02;;;;;;;26.13;25.10;;;;;;;;;;5051616;28;20490;-81
2023/12/13 04:15:29;;;;;;;33.63;32.38;;;;;;;;;;5052350;28;20057;-87
2023/12/13 04:17:55;;;;;;;27.65;26.15;;;;;;;;;;5043342;28;20053;-86
2023/12/13 04:20:22;;;;;;;32.53;31.23;;;;;;;;;;5035473;28;20053;-86
2023/12/13 04:22:50;;;;;;;42.13;40.17;;;;;;;;;;5036626;28;20053;-83
2023/12/13 04:25:16;;;;;;;27.02;25.88;;;;;;;;;;5055302;28;20045;-83
2023/12/13 04:27:45;;;;;;;25.83;24.70;;;;;;;;;;5047902;28;20191;-83
2023/12/13 04:30:12;;;;;;;28.75;27.52;;;;;;;;;;5035467;28;20065;-83
2023/12/13 04:32:39;;;;;;;32.58;31.25;;;;;;;;;;5034650;28;20136;-83
2023/12/13 04:35:06;;;;;;;44.40;42.50;;;;;;;;;;5054253;28;20109;-84
2023/12/13 04:37:32;;;;;;;26.00;23.98;;;;;;;;;;5052499;28;20425;-83
2023/12/13 04:40:00;;;;;;;32.58;30.70;;;;;;;;;;5034872;28;20115;-83
2023/12/13 04:42:26;;;;;;;34.67;33.05;;;;;;;;;;5035117;28;20103;-84
2023/12/13 04:44:53;;;;;;;33.88;32.35;;;;;;;;;;5035175;28;20073;-84
2023/12/13 04:47:20;;;;;;;34.13;32.17;;;;;;;;;;5047456;28;20075;-87
2023/12/13 04:49:46;;;;;;;39.40;37.65;;;;;;;;;;5038005;28;20123;-82
2023/12/13 04:52:13;;;;;;;35.28;33.13;;;;;;;;;;5034932;28;20049;-84
2023/12/13 04:54:39;;;;;;;37.38;35.55;;;;;;;;;;5034924;28;20111;-84
2023/12/13 04:57:08;;;;;;;33.10;31.67;;;;;;;;;;5034903;28;20115;-83
2023/12/13 04:59:34;;;;;;;29.95;28.67;;;;;;;;;;5041841;28;20057;-81
2023/12/13 05:02:01;;;;;;;36.03;34.53;;;;;;;;;;5043409;28;20056;-82
2023/12/13 05:04:27;;;;;;;32.60;30.77;;;;;;;;;;5054511;28;20048;-84
2023/12/13 05:06:54;;;;;;;37.95;36.33;;;;;;;;;;5054622;28;20049;-84
2023/12/13 05:09:20;;;;;;;33.55;31.80;;;;;;;;;;5046367;28;20100;-84
2023/12/13 05:11:47;;;;;;;42.50;40.60;;;;;;;;;;5034692;28;20053;-82
2023/12/13 05:14:14;;;;;;;33.03;31.02;;;;;;;;;;5034412;28;20057;-79
2023/12/13 05:16:41;;;;;;;41.25;39.17;;;;;;;;;;5035891;28;20092;-81
2023/12/13 05:19:07;;;;;;;39.72;37.60;;;;;;;;;;5051319;28;20056;-82
2023/12/13 05:21:34;;;;;;;29.13;27.83;;;;;;;;;;5034339;28;20628;-83
2023/12/13 05:24:00;;;;;;;40.67;38.95;;;;;;;;;;5034472;28;20046;-82
2023/12/13 05:26:27;;;;;;;43.13;41.13;;;;;;;;;;5034113;28;20092;-84
2023/12/13 05:28:53;;;;;;;39.15;37.03;;;;;;;;;;5033722;28;20127;-84
2023/12/13 05:31:22;;;;;;;33.72;32.25;;;;;;;;;;5034074;28;20061;-83
2023/12/13 05:33:48;;;;;;;33.42;32.10;;;;;;;;;;5034437;28;20465;-83
2023/12/13 05:36:15;;;;;;;34.40;31.88;;;;;;;;;;5054222;28;20171;-84
2023/12/13 05:38:42;;;;;;;44.47;42.00;;;;;;;;;;5053297;28;20111;-84
2023/12/13 05:41:08;;;;;;;31.02;28.50;;;;;;;;;;5041795;28;20561;-84
2023/12/13 05:43:35;;;;;;;29.90;28.30;;;;;;;;;;5034203;28;20053;-86
2023/12/13 05:46:01;;;;;;;27.67;26.40;;;;;;;;;;5034237;28;20049;-84
2023/12/13 05:48:29;;;;;;;28.17;26.83;;;;;;;;;;5048576;28;20107;-85
2023/12/13 05:50:56;;;;;;;30.75;29.38;;;;;;;;;;5045754;28;20111;-83
2023/12/13 05:53:22;;;;;;;33.40;31.88;;;;;;;;;;5034205;28;20548;-84
2023/12/13 05:55:49;;;;;;;28.20;26.50;;;;;;;;;;5033769;28;20045;-84
2023/12/13 05:58:15;;;;;;;29.05;27.27;;;;;;;;;;5033681;28;20076;-84
2023/12/13 06:00:42;;;;;;;44.30;42.42;;;;;;;;;;5041316;28;20563;-84
2023/12/13 06:03:09;;;;;;;50.72;48.00;;;;;;;;;;5041185;28;20045;-84
2023/12/13 06:05:37;;;;;;;32.78;30.50;;;;;;;;;;5053454;28;20559;-84
2023/12/13 06:08:04;;;;;;;34.08;32.58;;;;;;;;;;5053208;28;20448;-83
2023/12/13 06:10:30;;;;;;;35.35;33.42;;;;;;;;;;5052625;28;20087;-83
2023/12/13 06:12:57;;;;;;;34.92;33.08;;;;;;;;;;5035444;28;20100;-83
2023/12/13 06:15:23;;;;;;;30.90;29.27;;;;;;;;;;5033307;28;20057;-84
2023/12/13 06:17:50;;;;;;;42.25;39.92;;;;;;;;;;5033150;28;20103;-85
2023/12/13 06:20:16;;;;;;;30.65;29.00;;;;;;;;;;5040731;28;20052;-78
2023/12/13 06:22:44;;;;;;;26.73;25.63;;;;;;;;;;5040518;28;20152;-87
2023/12/13 06:25:11;;;;;;;30.15;29.05;;;;;;;;;;5033450;28;20458;-88
2023/12/13 06:27:37;;;;;;;33.92;32.08;;;;;;;;;;5033282;28;20107;-82
2023/12/13 06:30:04;;;;;;;38.63;36.70;;;;;;;;;;5030970;28;20766;-82
2023/12/13 06:32:31;;;;;;;33.88;32.40;;;;;;;;;;5045163;28;20041;-82
2023/12/13 06:34:57;;;;;;;46.47;44.53;;;;;;;;;;5053039;28;20056;-83
2023/12/13 06:37:24;;;;;;;45.75;43.95;;;;;;;;;;5053240;28;20506;-83
2023/12/13 06:39:52;;;;;;;34.35;32.65;;;;;;;;;;5052162;28;20041;-83
2023/12/13 06:42:18;;;;;;;44.00;42.13;;;;;;;;;;5046436;28;20048;-83
2023/12/13 06:44:45;;;;;;;48.67;46.65;;;;;;;;;;5032563;28;20061;-84
2023/12/13 06:47:11;;;;;;;46.38;44.53;;;;;;;;;;5035893;28;20482;-84
2023/12/13 06:49:38;;;;;;;40.80;39.17;;;;;;;;;;5036814;28;20044;-84
2023/12/13 06:52:04;;;;;;;62.00;59.70;;;;;;;;;;5042481;28;20115;-83
2023/12/13 06:54:31;;;;;;;53.58;51.53;;;;;;;;;;5031744;28;20505;-82
2023/12/13 06:56:59;;;;;;;57.83;55.50;;;;;;;;;;5030128;28;20086;-82
2023/12/13 06:59:26;;;;;;;58.53;56.38;;;;;;;;;;5045376;28;20049;-83
2023/12/13 07:01:52;;;;;;;59.97;57.53;;;;;;;;;;5043056;28;20041;-82
2023/12/13 07:04:19;;;;;;;61.17;58.95;;;;;;;;;;5051000;28;20060;-83
2023/12/13 07:06:45;;;;;;;55.03;52.95;;;;;;;;;;5051978;28;20106;-84
2023/12/13 07:09:18;;;;;;;70.63;68.07;;;;;;;;;;5052179;28;20079;-84
2023/12/13 07:11:44;;;;;;;57.20;54.97;;;;;;;;;;5052522;28;20132;-84
2023/12/13 07:14:14;;;;;;;58.63;56.42;;;;;;;;;;5041844;28;20047;-84
2023/12/13 07:16:41;;;;;;;64.30;61.50;;;;;;;;;;5038823;28;20124;-84
2023/12/13 07:19:08;;;;;;;72.22;68.70;;;;;;;;;;5044342;28;20544;-84
2023/12/13 07:21:35;;;;;;;74.35;71.57;;;;;;;;;;5051726;28;20462;-84
2023/12/13 07:24:01;;;;;;;86.35;83.10;;;;;;;;;;5042497;28;20037;-84
2023/12/13 07:26:28;;;;;;;74.07;71.15;;;;;;;;;;5036336;28;20046;-82
2023/12/13 07:28:55;;;;;;;75.10;71.93;;;;;;;;;;5044113;28;20037;-85
2023/12/13 07:31:23;;;;;;;66.93;63.85;;;;;;;;;;5051988;28;20049;-84
2023/12/13 07:33:49;;;;;;;74.60;71.22;;;;;;;;;;5050714;28;20053;-84
2023/12/13 07:36:16;;;;;;;71.95;68.88;;;;;;;;;;5051468;28;20048;-84
2023/12/13 07:38:43;;;;;;;66.68;63.95;;;;;;;;;;5048372;28;20047;-82
2023/12/13 07:41:09;;;;;;;66.47;64.03;;;;;;;;;;5050277;28;20051;-86
2023/12/13 07:43:36;;;;;;;73.20;70.00;;;;;;;;;;5051176;28;20106;-85
2023/12/13 07:46:03;;;;;;;64.03;61.58;;;;;;;;;;5043400;28;20474;-85
2023/12/13 07:48:31;;;;;;;64.30;61.88;;;;;;;;;;5051831;28;20060;-85
2023/12/13 07:50:58;;;;;;;74.45;71.78;;;;;;;;;;5055225;28;20056;-85
2023/12/13 07:53:24;;;;;;;79.05;76.35;;;;;;;;;;5056032;28;20045;-84
2023/12/13 07:55:51;;;;;;;59.50;57.30;;;;;;;;;;5049384;28;20045;-84
2023/12/13 07:58:18;;;;;;;77.53;74.88;;;;;;;;;;5056054;28;20045;-84
2023/12/13 08:00:44;;;;;;;81.07;78.03;;;;;;;;;;5056232;28;20444;-84
2023/12/13 08:03:11;;;;;;;71.32;68.55;;;;;;;;;;5056287;28;20045;-84
2023/12/13 08:05:39;;;;;;;73.63;70.82;;;;;;;;;;5053306;28;20544;-85
2023/12/13 08:08:05;;;;;;;79.72;76.75;;;;;;;;;;5056088;28;20037;-84
2023/12/13 08:10:32;;;;;;;98.40;95.03;;;;;;;;;;5056255;28;20048;-84
2023/12/13 08:12:58;;;;;;;85.88;82.47;;;;;;;;;;5055803;28;20103;-84
2023/12/13 08:15:25;;;;;;;90.93;87.50;;;;;;;;;;5054929;28;20119;-84
2023/12/13 08:17:51;;;;;;;91.05;87.80;;;;;;;;;;5055305;28;20052;-85
2023/12/13 08:20:18;;;;;;;93.82;90.30;;;;;;;;;;5055617;28;20044;-85
2023/12/13 08:22:46;;;;;;;93.72;90.18;;;;;;;;;;5055290;28;20136;-78
2023/12/13 08:25:13;;;;;;;97.90;94.47;;;;;;;;;;5054851;28;20081;-83
2023/12/13 08:27:39;;;;;;;92.35;89.25;;;;;;;;;;5055693;28;20045;-85
2023/12/13 08:30:07;;;;;;;108.65;104.15;;;;;;;;;;5055676;28;20049;-84
2023/12/13 08:32:34;;;;;;;100.15;96.80;;;;;;;;;;5049150;28;20064;-84
2023/12/13 08:35:00;;;;;;;101.28;97.72;;;;;;;;;;5048390;28;20060;-84
2023/12/13 08:37:27;;;;;;;102.03;98.53;;;;;;;;;;5054039;28;20048;-85
2023/12/13 08:39:54;;;;;;;96.28;92.85;;;;;;;;;;5039503;28;20048;-83
2023/12/13 08:42:21;;;;;;;100.88;96.97;;;;;;;;;;5055439;28;20053;-84
2023/12/13 08:44:47;;;;;;;90.10;86.95;;;;;;;;;;5054919;28;20052;-85
2023/12/13 08:47:14;;;;;;;95.25;91.85;;;;;;;;;;5042793;28;20060;-81
2023/12/13 08:49:41;;;;;;;118.60;114.35;;;;;;;;;;5053443;28;20497;-82
2023/12/13 08:52:07;;;;;;;105.78;101.72;;;;;;;;;;5054742;28;20079;-81
2023/12/13 08:54:40;;;;;;;112.47;108.63;;;;;;;;;;5054865;28;20060;-82
2023/12/13 08:57:08;;;;;;;117.22;113.13;;;;;;;;;;5053941;28;20135;-81
2023/12/13 08:59:34;;;;;;;110.50;106.72;;;;;;;;;;5053224;28;20052;-84
2023/12/13 09:02:01;;;;;;;122.45;118.07;;;;;;;;;;5054293;28;20051;-82
2023/12/13 09:04:28;;;;;;;116.30;112.15;;;;;;;;;;5054754;28;20053;-82
2023/12/13 09:06:54;;;;;;;112.65;108.60;;;;;;;;;;5054083;28;20049;-79
2023/12/13 09:09:21;;;;;;;115.68;111.68;;;;;;;;;;5054743;28;20041;-80
2023/12/13 09:11:47;;;;;;;120.35;116.22;;;;;;;;;;5054878;28;20045;-80
2023/12/13 09:14:15;;;;;;;118.63;114.63;;;;;;;;;;5054465;28;20837;-79
2023/12/13 09:16:42;;;;;;;115.53;111.57;;;;;;;;;;5054506;28;20485;-81
2023/12/13 09:19:08;;;;;;;118.07;114.18;;;;;;;;;;5052511;28;20126;-79
2023/12/13 09:21:35;;;;;;;130.23;125.85;;;;;;;;;;5053454;28;20049;-80
2023/12/13 09:24:02;;;;;;;121.47;117.40;;;;;;;;;;5053402;28;20099;-83
2023/12/13 09:26:28;;;;;;;132.68;128.32;;;;;;;;;;5053796;28;20460;-81
2023/12/13 09:28:56;;;;;;;139.02;134.27;;;;;;;;;;5049358;28;20392;-83
2023/12/13 09:31:24;;;;;;;118.68;114.78;;;;;;;;;;5050411;28;20081;-82
2023/12/13 09:33:51;;;;;;;124.25;120.15;;;;;;;;;;5051199;28;20080;-83
2023/12/13 09:36:18;;;;;;;129.98;125.72;;;;;;;;;;5054505;28;20079;-81
2023/12/13 09:38:44;;;;;;;119.45;115.53;;;;;;;;;;5052794;28;20055;-83
2023/12/13 09:41:11;;;;;;;132.63;128.40;;;;;;;;;;5048892;28;20060;-82
2023/12/13 09:43:41;;;;;;;130.85;126.72;;;;;;;;;;5053805;28;20102;-82
2023/12/13 09:46:08;;;;;;;115.60;111.85;;;;;;;;;;5053526;28;20090;-83
2023/12/13 09:48:36;;;;;;;129.32;125.07;;;;;;;;;;5052878;28;20053;-82
2023/12/13 09:51:05;;;;;;;129.35;125.18;;;;;;;;;;5051670;28;20552;-82
2023/12/13 09:53:32;;;;;;;128.73;124.53;;;;;;;;;;5053343;28;20076;-77
2023/12/13 09:55:59;;;;;;;125.53;121.57;;;;;;;;;;5053168;28;20103;-88
2023/12/13 09:58:25;;;;;;;121.60;117.57;;;;;;;;;;5053434;28;20106;-86
2023/12/13 10:00:52;;;;;;;124.15;120.00;;;;;;;;;;5052056;28;20107;-86
2023/12/13 10:03:18;;;;;;;99.60;96.03;;;;;;;;;;5053510;28;20045;-86
2023/12/13 10:05:48;;;;;;;125.60;121.50;;;;;;;;;;5053171;28;20093;-86
2023/12/13 10:08:15;;;;;;;117.70;113.75;;;;;;;;;;5053086;28;20094;-89
2023/12/13 10:10:43;;;;;;;113.50;109.78;;;;;;;;;;5052943;28;20095;-86
2023/12/13 10:13:10;;;;;;;122.63;118.70;;;;;;;;;;5052686;28;20319;-85
2023/12/13 10:15:36;;;;;;;119.93;115.95;;;;;;;;;;5052652;28;20124;-85
2023/12/13 10:18:03;;;;;;;127.43;123.28;;;;;;;;;;5053016;28;20452;-89
2023/12/13 10:20:30;;;;;;;117.88;113.85;;;;;;;;;;5051218;28;20068;-87
2023/12/13 10:22:58;;;;;;;114.05;110.22;;;;;;;;;;5045432;28;20075;-86
2023/12/13 10:25:25;;;;;;;115.80;111.82;;;;;;;;;;5052484;28;20053;-82
2023/12/13 10:27:51;;;;;;;126.18;122.07;;;;;;;;;;5052068;28;20044;-84
2023/12/13 10:30:18;;;;;;;122.78;118.68;;;;;;;;;;5051717;28;20048;-82
2023/12/13 10:32:45;;;;;;;126.72;122.70;;;;;;;;;;5046493;28;20060;-83
2023/12/13 10:35:11;;;;;;;121.38;117.43;;;;;;;;;;5052445;28;20513;-81
2023/12/13 10:37:38;;;;;;;125.55;121.47;;;;;;;;;;5052286;28;20056;-82
2023/12/13 10:40:07;;;;;;;135.15;130.85;;;;;;;;;;5052201;28;20040;-81
2023/12/13 10:42:37;;;;;;;114.13;110.43;;;;;;;;;;5049521;28;20444;-83
2023/12/13 10:45:04;;;;;;;115.15;111.28;;;;;;;;;;5051914;28;20098;-86
2023/12/13 10:47:32;;;;;;;123.55;119.60;;;;;;;;;;5046325;28;20498;-85
2023/12/13 10:50:00;;;;;;;132.05;127.85;;;;;;;;;;5049755;28;20896;-88
2023/12/13 10:52:27;;;;;;;106.35;102.63;;;;;;;;;;5044249;28;20051;-85
2023/12/13 10:54:54;;;;;;;117.47;113.65;;;;;;;;;;5032407;28;20140;-86
2023/12/13 10:57:22;;;;;;;125.28;121.15;;;;;;;;;;5033329;28;20498;-88
2023/12/13 10:59:49;;;;;;;136.23;131.77;;;;;;;;;;5032421;28;20053;-85
2023/12/13 11:02:18;;;;;;;133.88;129.38;;;;;;;;;;5040010;28;20164;-85
2023/12/13 11:04:46;;;;;;;132.00;127.68;;;;;;;;;;5034930;28;20052;-86
2023/12/13 11:07:12;;;;;;;124.28;120.28;;;;;;;;;;5051305;28;20044;-86
2023/12/13 11:09:49;;;;;;;125.32;121.20;;;;;;;;;;5052623;28;20135;-84
2023/12/13 11:12:18;;;;;;;134.65;130.15;;;;;;;;;;5051310;28;20055;-85
2023/12/13 11:14:49;;;;;;;135.93;131.52;;;;;;;;;;5046575;28;20056;-84
2023/12/13 11:17:15;;;;;;;;;;;;;;;;;;5050018;28;20052;-85
2023/12/13 11:19:41;;;;;;;127.43;123.32;;;;;;;;;;5052315;28;19921;-87
2023/12/13 11:22:11;;;;;;;117.40;113.60;;;;;;;;;;5051820;28;20053;-85
2023/12/13 11:24:40;;;;;;;132.43;128.10;;;;;;;;;;5041096;28;20071;-85
2023/12/13 11:27:10;;;;;;;150.38;145.68;;;;;;;;;;5052436;28;20052;-86
2023/12/13 11:29:36;;;;;;;121.20;117.13;;;;;;;;;;5052354;28;20055;-85
2023/12/13 11:32:05;;;;;;;124.65;120.60;;;;;;;;;;5052676;28;20103;-87
2023/12/13 11:34:32;;;;;;;117.05;112.88;;;;;;;;;;5047843;28;20052;-87
2023/12/13 11:37:00;;;;;;;126.95;122.75;;;;;;;;;;5051697;28;20052;-86
2023/12/13 11:39:27;;;;;;;110.50;106.72;;;;;;;;;;5051995;28;20080;-87
2023/12/13 11:41:54;;;;;;;115.22;111.35;;;;;;;;;;5051988;28;20049;-88
2023/12/13 11:44:21;;;;;;;121.50;117.40;;;;;;;;;;5047292;28;20049;-84
2023/12/13 11:46:53;;;;;;;111.80;107.95;;;;;;;;;;5052654;28;20044;-85
2023/12/13 11:49:21;;;;;;;108.18;104.40;;;;;;;;;;5052004;28;20413;-85
2023/12/13 11:51:48;;;;;;;128.38;124.10;;;;;;;;;;5051857;28;20391;-87
2023/12/13 11:54:15;;;;;;;125.95;121.57;;;;;;;;;;5042145;28;20077;-86
2023/12/13 11:56:42;;;;;;;137.00;132.50;;;;;;;;;;5051961;28;20041;-85
2023/12/13 11:59:08;;;;;;;141.57;136.93;;;;;;;;;;5049700;28;20045;-85
2023/12/13 12:01:35;;;;;;;127.85;123.57;;;;;;;;;;5044619;28;20063;-88
2023/12/13 12:04:01;;;;;;;121.82;117.55;;;;;;;;;;5050314;28;20060;-84
2023/12/13 12:06:30;;;;;;;123.93;119.90;;;;;;;;;;5051473;28;20040;-79
2023/12/13 12:09:00;;;;;;;128.07;123.82;;;;;;;;;;5051470;28;20094;-83
2023/12/13 12:11:26;;;;;;;118.93;114.93;;;;;;;;;;5051658;28;20045;-82
2023/12/13 12:13:53;;;;;;;136.63;132.13;;;;;;;;;;5050717;28;20130;-79
2023/12/13 12:16:20;;;;;;;125.18;120.88;;;;;;;;;;5051362;28;20049;-82
2023/12/13 12:18:47;;;;;;;139.50;134.70;;;;;;;;;;5051291;28;20049;-81
2023/12/13 12:21:13;;;;;;;129.38;125.13;;;;;;;;;;5051406;28;20048;-81
2023/12/13 12:23:42;;;;;;;112.18;108.45;;;;;;;;;;5051476;28;20107;-82
2023/12/13 12:26:08;;;;;;;132.00;127.30;;;;;;;;;;5043145;28;20053;-82
2023/12/13 12:28:35;;;;;;;129.80;125.38;;;;;;;;;;5050960;28;20103;-84
2023/12/13 12:31:01;;;;;;;123.68;119.28;;;;;;;;;;5051141;28;20108;-81
2023/12/13 12:33:28;;;;;;;118.53;114.35;;;;;;;;;;5051053;28;20052;-81
2023/12/13 12:35:55;;;;;;;123.93;119.82;;;;;;;;;;5048101;28;20810;-82
2023/12/13 12:38:21;;;;;;;131.50;127.15;;;;;;;;;;5054155;28;20057;-82
2023/12/13 12:40:49;;;;;;;141.30;136.63;;;;;;;;;;5055245;28;20498;-83
2023/12/13 12:43:18;;;;;;;140.23;135.75;;;;;;;;;;5055043;28;20045;-82
2023/12/13 12:45:45;;;;;;;126.72;122.53;;;;;;;;;;5054309;28;20045;-82
2023/12/13 12:48:12;;;;;;;139.75;135.25;;;;;;;;;;5053560;28;20655;-83
2023/12/13 12:50:38;;;;;;;158.45;153.20;;;;;;;;;;5055055;28;20099;-82
2023/12/13 12:53:05;;;;;;;141.30;136.77;;;;;;;;;;5054577;28;20676;-80
2023/12/13 12:55:31;;;;;;;142.57;137.60;;;;;;;;;;5054066;28;20103;-82
2023/12/13 12:57:59;;;;;;;145.82;141.07;;;;;;;;;;5054521;28;20098;-82
2023/12/13 13:00:26;;;;;;;129.82;125.53;;;;;;;;;;5054287;28;20091;-82
2023/12/13 13:02:53;;;;;;;134.30;129.90;;;;;;;;;;5053686;28;20041;-83
2023/12/13 13:05:19;;;;;;;156.20;151.15;;;;;;;;;;5054726;28;20128;-83
2023/12/13 13:07:46;;;;;;;146.95;142.15;;;;;;;;;;5053790;28;20102;-82
2023/12/13 13:10:12;;;;;;;143.05;138.27;;;;;;;;;;5054331;28;20070;-81
2023/12/13 13:12:39;;;;;;;144.45;139.90;;;;;;;;;;5054358;28;20138;-82
2023/12/13 13:15:09;;;;;;;142.55;138.02;;;;;;;;;;5054559;28;20111;-82
2023/12/13 13:17:36;;;;;;;202.35;196.32;;;;;;;;;;5049641;28;20053;-83
2023/12/13 13:20:12;;;;;;;182.35;176.93;;;;;;;;;;5051975;28;20049;-81
2023/12/13 13:22:39;;;;;;;198.63;192.73;;;;;;;;;;5043426;28;20088;-81
2023/12/13 13:25:06;;;;;;;192.15;186.32;;;;;;;;;;5054596;28;20053;-85
2023/12/13 13:27:32;;;;;;;173.85;168.35;;;;;;;;;;5052982;28;20106;-83
2023/12/13 13:29:59;;;;;;;187.50;182.02;;;;;;;;;;5049649;28;20141;-82
2023/12/13 13:32:27;;;;;;;174.13;168.75;;;;;;;;;;5054270;28;20107;-82
2023/12/13 13:34:53;;;;;;;186.55;180.93;;;;;;;;;;5054042;28;20470;-83
2023/12/13 13:37:20;;;;;;;189.93;184.15;;;;;;;;;;5053162;28;20103;-83
2023/12/13 13:39:48;;;;;;;184.75;179.07;;;;;;;;;;5052289;28;20493;-83
2023/12/13 13:42:15;;;;;;;155.68;150.80;;;;;;;;;;5053939;28;20127;-83
2023/12/13 13:44:41;;;;;;;158.25;153.23;;;;;;;;;;5053946;28;20614;-84
2023/12/13 13:47:08;;;;;;;150.50;145.25;;;;;;;;;;5053703;28;20595;-83
2023/12/13 13:49:36;;;;;;;166.48;161.23;;;;;;;;;;5052979;28;20049;-84
2023/12/13 13:52:03;;;;;;;158.38;153.45;;;;;;;;;;5053805;28;20140;-83
2023/12/13 13:54:29;;;;;;;160.73;155.77;;;;;;;;;;5053656;28;20053;-82
2023/12/13 13:56:56;;;;;;;150.32;145.60;;;;;;;;;;5053638;28;20040;-83
2023/12/13 13:59:22;;;;;;;178.43;173.10;;;;;;;;;;5048920;28;20041;-83
2023/12/13 14:01:49;;;;;;;152.93;148.00;;;;;;;;;;5048205;28;20041;-83
2023/12/13 14:04:16;;;;;;;126.18;121.97;;;;;;;;;;5053378;28;20049;-82
2023/12/13 14:06:44;;;;;;;162.45;157.32;;;;;;;;;;5053964;28;20041;-83